createdAt,value
2018-08-03T00:00:44.817Z,5.90
2018-08-03T00:02:45.815Z,3.80
2018-08-03T00:04:45.083Z,5.70
2018-08-03T00:05:44.923Z,4.90
2018-08-03T00:06:45.326Z,5.70
2018-08-03T00:07:45.129Z,6.50
2018-08-03T00:08:45.206Z,5.00
2018-08-03T00:09:46.864Z,5.00
2018-08-03T00:10:45.015Z,4.80
2018-08-03T00:11:45.097Z,4.50
2018-08-03T00:13:45.067Z,4.80
2018-08-03T00:14:45.548Z,5.40
2018-08-03T00:15:45.310Z,4.10
2018-08-03T00:16:45.480Z,4.80
2018-08-03T00:17:45.061Z,4.40
2018-08-03T00:18:45.082Z,5.20
2018-08-03T00:19:45.175Z,4.80
2018-08-03T00:20:45.159Z,4.20
2018-08-03T00:21:45.138Z,6.30
2018-08-03T00:22:45.155Z,6.30
2018-08-03T00:23:45.171Z,3.70
2018-08-03T00:24:45.191Z,5.30
2018-08-03T00:25:45.200Z,5.80
2018-08-03T00:26:45.222Z,5.10
2018-08-03T00:27:45.266Z,4.40
2018-08-03T00:28:45.254Z,5.70
2018-08-03T00:29:45.273Z,3.10
2018-08-03T00:30:45.289Z,2.90
2018-08-03T00:31:45.308Z,5.00
2018-08-03T00:32:45.329Z,3.00
2018-08-03T00:33:45.350Z,5.60
2018-08-03T00:34:45.368Z,4.60
2018-08-03T00:35:45.389Z,4.30
2018-08-03T00:36:45.396Z,7.20
2018-08-03T00:37:45.414Z,3.30
2018-08-03T00:39:45.668Z,6.20
2018-08-03T00:40:45.510Z,5.10
2018-08-03T00:41:45.546Z,4.00
2018-08-03T00:42:45.502Z,4.70
2018-08-03T00:43:45.523Z,4.40
2018-08-03T00:44:45.548Z,5.50
2018-08-03T00:45:45.577Z,5.50
2018-08-03T00:46:45.567Z,3.80
2018-08-03T00:47:45.588Z,4.00
2018-08-03T00:48:45.605Z,4.30
2018-08-03T00:49:45.634Z,4.90
2018-08-03T00:50:45.648Z,5.40
2018-08-03T00:51:45.657Z,4.70
2018-08-03T00:52:45.782Z,4.00
2018-08-03T00:53:45.690Z,3.50
2018-08-03T00:54:45.717Z,4.20
2018-08-03T00:55:45.734Z,4.60
2018-08-03T00:56:45.743Z,4.50
2018-08-03T00:57:45.762Z,5.00
2018-08-03T00:58:45.795Z,4.00
2018-08-03T00:59:45.795Z,6.10
2018-08-03T01:00:45.817Z,6.10
2018-08-03T01:01:45.843Z,4.00
2018-08-03T01:02:45.850Z,4.10
2018-08-03T01:03:45.865Z,6.50
2018-08-03T01:04:45.882Z,3.70
2018-08-03T01:05:45.901Z,4.80
2018-08-03T01:06:45.928Z,5.40
2018-08-03T01:07:45.936Z,3.90
2018-08-03T01:08:45.957Z,7.10
2018-08-03T01:09:45.972Z,4.60
2018-08-03T01:10:45.985Z,5.50
2018-08-03T01:11:46.013Z,5.60
2018-08-03T01:12:46.020Z,4.50
2018-08-03T01:13:46.084Z,4.70
2018-08-03T01:14:46.211Z,4.70
2018-08-03T01:15:46.223Z,4.30
2018-08-03T01:16:46.199Z,4.90
2018-08-03T01:17:46.154Z,4.80
2018-08-03T01:18:46.159Z,5.40
2018-08-03T01:19:46.133Z,4.50
2018-08-03T01:20:46.154Z,3.60
2018-08-03T01:21:46.171Z,4.20
2018-08-03T01:22:46.192Z,4.80
2018-08-03T01:23:46.204Z,5.10
2018-08-03T01:24:46.221Z,3.80
2018-08-03T01:26:46.782Z,3.90
2018-08-03T01:27:46.274Z,6.70
2018-08-03T01:28:46.297Z,5.30
2018-08-03T01:29:46.317Z,5.70
2018-08-03T01:30:46.323Z,5.50
2018-08-03T01:31:46.342Z,4.70
2018-08-03T01:32:46.362Z,6.00
2018-08-03T01:33:46.376Z,5.40
2018-08-03T01:34:46.392Z,5.60
2018-08-03T01:35:46.409Z,6.10
2018-08-03T01:36:46.429Z,4.90
2018-08-03T01:37:46.507Z,4.80
2018-08-03T01:38:46.463Z,5.40
2018-08-03T01:39:46.479Z,5.60
2018-08-03T01:40:46.497Z,3.20
2018-08-03T01:41:46.513Z,5.20
2018-08-03T01:42:46.531Z,4.60
2018-08-03T01:43:46.652Z,4.90
2018-08-03T01:44:46.613Z,5.10
2018-08-03T01:45:46.582Z,4.60
2018-08-03T01:46:46.604Z,4.20
2018-08-03T01:47:46.623Z,5.70
2018-08-03T01:48:46.663Z,4.60
2018-08-03T01:49:46.659Z,6.70
2018-08-03T01:50:46.671Z,4.70
2018-08-03T01:51:46.686Z,6.30
2018-08-03T01:52:46.701Z,3.20
2018-08-03T01:53:46.719Z,6.50
2018-08-03T01:54:46.737Z,3.70
2018-08-03T01:55:46.753Z,5.20
2018-08-03T01:56:46.772Z,5.30
2018-08-03T01:57:46.786Z,5.10
2018-08-03T01:58:46.804Z,4.30
2018-08-03T01:59:47.194Z,3.80
2018-08-03T02:00:46.885Z,4.60
2018-08-03T02:01:46.854Z,5.70
2018-08-03T02:02:46.871Z,5.10
2018-08-03T02:03:46.890Z,4.40
2018-08-03T02:04:46.907Z,6.10
2018-08-03T02:05:46.943Z,5.10
2018-08-03T02:06:46.940Z,3.80
2018-08-03T02:07:46.965Z,6.60
2018-08-03T02:08:46.974Z,4.40
2018-08-03T02:09:46.991Z,3.50
2018-08-03T02:10:47.012Z,5.20
2018-08-03T02:11:47.024Z,5.90
2018-08-03T02:12:47.041Z,3.90
2018-08-03T02:13:47.077Z,4.60
2018-08-03T02:14:47.080Z,7.60
2018-08-03T02:15:47.093Z,6.20
2018-08-03T02:16:47.112Z,6.20
2018-08-03T02:17:47.145Z,5.50
2018-08-03T02:18:47.164Z,4.20
2018-08-03T02:19:47.484Z,6.30
2018-08-03T02:20:47.846Z,7.20
2018-08-03T02:21:47.200Z,5.10
2018-08-03T02:22:47.323Z,5.50
2018-08-03T02:23:47.272Z,6.50
2018-08-03T02:24:47.257Z,5.30
2018-08-03T02:25:47.269Z,5.40
2018-08-03T02:26:47.281Z,4.40
2018-08-03T02:27:47.306Z,7.10
2018-08-03T02:28:47.316Z,5.20
2018-08-03T02:29:47.331Z,4.30
2018-08-03T02:30:47.346Z,6.30
2018-08-03T02:31:47.367Z,5.40
2018-08-03T02:32:47.391Z,7.00
2018-08-03T02:33:47.417Z,4.60
2018-08-03T02:34:47.464Z,6.40
2018-08-03T02:35:47.641Z,6.30
2018-08-03T02:36:47.456Z,5.10
2018-08-03T02:37:47.467Z,6.00
2018-08-03T02:38:47.497Z,5.70
2018-08-03T02:39:47.501Z,5.70
2018-08-03T02:40:47.525Z,7.70
2018-08-03T02:41:47.543Z,7.70
2018-08-03T02:42:47.554Z,4.50
2018-08-03T02:43:47.574Z,7.50
2018-08-03T02:44:47.588Z,9.40
2018-08-03T02:45:47.609Z,7.90
2018-08-03T02:46:47.622Z,4.30
2018-08-03T02:47:47.636Z,4.50
2018-08-03T02:48:47.653Z,6.30
2018-08-03T02:49:47.673Z,4.50
2018-08-03T02:50:47.749Z,6.30
2018-08-03T02:52:48.333Z,4.70
2018-08-03T02:53:48.125Z,4.30
2018-08-03T02:54:47.772Z,5.50
2018-08-03T02:55:47.784Z,5.90
2018-08-03T02:56:47.797Z,4.90
2018-08-03T02:57:47.806Z,5.60
2018-08-03T02:58:47.826Z,5.10
2018-08-03T02:59:47.838Z,5.30
2018-08-03T03:00:47.856Z,6.30
2018-08-03T03:01:47.879Z,6.00
2018-08-03T03:02:47.890Z,4.60
2018-08-03T03:03:47.907Z,5.20
2018-08-03T03:04:47.928Z,6.50
2018-08-03T03:05:47.940Z,6.30
2018-08-03T03:06:47.957Z,7.80
2018-08-03T03:07:47.990Z,6.00
2018-08-03T03:08:48.043Z,6.00
2018-08-03T03:09:48.008Z,6.10
2018-08-03T03:10:48.028Z,4.90
2018-08-03T03:11:48.053Z,4.20
2018-08-03T03:12:48.069Z,5.00
2018-08-03T03:13:48.076Z,6.40
2018-08-03T03:14:48.096Z,5.30
2018-08-03T03:15:48.121Z,6.10
2018-08-03T03:16:48.134Z,7.30
2018-08-03T03:17:48.151Z,7.80
2018-08-03T03:18:48.158Z,6.80
2018-08-03T03:19:48.440Z,9.10
2018-08-03T03:20:48.404Z,7.40
2018-08-03T03:21:48.468Z,5.00
2018-08-03T03:22:48.230Z,5.70
2018-08-03T03:23:48.271Z,6.30
2018-08-03T03:24:48.380Z,5.10
2018-08-03T03:25:48.283Z,5.60
2018-08-03T03:26:48.294Z,5.80
2018-08-03T03:27:48.321Z,7.20
2018-08-03T03:28:48.381Z,7.60
2018-08-03T03:29:48.736Z,6.20
2018-08-03T03:30:48.426Z,7.00
2018-08-03T03:31:48.384Z,5.20
2018-08-03T03:32:48.396Z,6.20
2018-08-03T03:33:48.412Z,6.30
2018-08-03T03:34:48.429Z,6.50
2018-08-03T03:36:48.465Z,5.80
2018-08-03T03:37:48.482Z,7.10
2018-08-03T03:38:48.507Z,5.10
2018-08-03T03:39:48.574Z,6.00
2018-08-03T03:40:48.929Z,7.20
2018-08-03T03:41:48.546Z,8.20
2018-08-03T03:42:48.664Z,8.60
2018-08-03T03:43:48.579Z,7.30
2018-08-03T03:44:48.611Z,5.70
2018-08-03T03:45:48.613Z,6.50
2018-08-03T03:46:48.631Z,7.10
2018-08-03T03:47:48.660Z,8.90
2018-08-03T03:48:48.669Z,9.80
2018-08-03T03:49:48.684Z,6.30
2018-08-03T03:50:48.697Z,8.10
2018-08-03T03:51:48.883Z,7.80
2018-08-03T03:52:49.099Z,7.70
2018-08-03T03:53:48.771Z,6.80
2018-08-03T03:54:48.774Z,5.80
2018-08-03T03:55:49.172Z,8.10
2018-08-03T03:56:48.863Z,6.00
2018-08-03T03:57:48.813Z,8.90
2018-08-03T03:58:48.835Z,7.20
2018-08-03T03:59:48.858Z,7.10
2018-08-03T04:00:48.875Z,8.00
2018-08-03T04:01:48.885Z,7.40
2018-08-03T04:02:48.896Z,7.90
2018-08-03T04:03:49.029Z,6.30
2018-08-03T04:04:48.932Z,7.70
2018-08-03T04:05:48.948Z,7.50
2018-08-03T04:06:48.967Z,9.10
2018-08-03T04:07:48.981Z,6.50
2018-08-03T04:08:48.998Z,10.50
2018-08-03T04:09:49.020Z,6.80
2018-08-03T04:10:49.036Z,7.10
2018-08-03T04:11:49.100Z,8.40
2018-08-03T04:12:49.081Z,9.00
2018-08-03T04:13:49.531Z,9.00
2018-08-03T04:14:49.099Z,6.70
2018-08-03T04:15:49.120Z,7.00
2018-08-03T04:16:49.169Z,8.80
2018-08-03T04:17:51.368Z,9.80
2018-08-03T04:22:49.315Z,7.20
2018-08-03T04:23:49.982Z,6.60
2018-08-03T04:24:49.436Z,6.70
2018-08-03T04:25:49.831Z,6.80
2018-08-03T04:26:49.305Z,6.50
2018-08-03T04:27:49.378Z,9.10
2018-08-03T04:28:50.321Z,7.90
2018-08-03T04:29:51.749Z,7.60
2018-08-03T04:32:49.506Z,6.90
2018-08-03T04:33:49.420Z,7.70
2018-08-03T04:34:50.142Z,7.20
2018-08-03T04:36:49.651Z,7.30
2018-08-03T04:38:49.510Z,8.00
2018-08-03T04:39:49.781Z,6.50
2018-08-03T04:40:50.032Z,7.00
2018-08-03T04:41:49.788Z,7.20
2018-08-03T04:42:50.223Z,8.00
2018-08-03T04:43:50.447Z,8.80
2018-08-03T04:44:49.664Z,7.70
2018-08-03T04:45:49.625Z,7.80
2018-08-03T04:46:49.631Z,9.50
2018-08-03T04:47:49.646Z,9.50
2018-08-03T04:48:49.669Z,7.80
2018-08-03T04:49:49.682Z,10.60
2018-08-03T04:50:49.696Z,6.80
2018-08-03T04:51:49.727Z,7.10
2018-08-03T04:52:49.730Z,6.90
2018-08-03T04:53:49.758Z,7.50
2018-08-03T04:54:49.852Z,9.00
2018-08-03T04:55:49.779Z,6.90
2018-08-03T04:56:50.902Z,9.60
2018-08-03T04:57:49.815Z,9.80
2018-08-03T05:00:50.347Z,7.30
2018-08-03T05:01:50.638Z,8.30
2018-08-03T05:02:50.026Z,9.70
2018-08-03T05:03:49.905Z,7.70
2018-08-03T05:04:50.022Z,9.00
2018-08-03T05:05:49.943Z,10.80
2018-08-03T05:06:49.957Z,7.70
2018-08-03T05:07:50.546Z,7.60
2018-08-03T05:08:50.105Z,8.80
2018-08-03T05:09:50.298Z,9.40
2018-08-03T05:10:50.032Z,9.00
2018-08-03T05:11:50.189Z,8.20
2018-08-03T05:12:50.259Z,8.20
2018-08-03T05:13:50.556Z,9.30
2018-08-03T05:14:50.165Z,9.00
2018-08-03T05:15:50.106Z,9.10
2018-08-03T05:16:50.134Z,7.50
2018-08-03T05:17:50.140Z,8.10
2018-08-03T05:18:50.225Z,7.50
2018-08-03T05:19:50.217Z,9.50
2018-08-03T05:20:50.198Z,8.10
2018-08-03T05:21:50.256Z,8.70
2018-08-03T05:22:50.280Z,11.30
2018-08-03T05:23:50.307Z,9.00
2018-08-03T05:24:50.259Z,8.30
2018-08-03T05:25:50.351Z,9.80
2018-08-03T05:26:50.294Z,8.50
2018-08-03T05:27:50.305Z,10.50
2018-08-03T05:28:50.566Z,9.70
2018-08-03T05:30:50.374Z,8.70
2018-08-03T05:31:50.380Z,10.80
2018-08-03T05:32:50.391Z,8.70
2018-08-03T05:33:50.407Z,9.40
2018-08-03T05:34:50.988Z,10.40
2018-08-03T05:35:50.540Z,8.90
2018-08-03T05:36:50.854Z,7.60
2018-08-03T05:37:50.474Z,9.20
2018-08-03T05:38:50.490Z,10.10
2018-08-03T05:39:51.682Z,9.70
2018-08-03T05:40:50.622Z,8.30
2018-08-03T05:41:50.593Z,8.20
2018-08-03T05:42:50.614Z,10.60
2018-08-03T05:43:50.701Z,11.00
2018-08-03T05:44:51.133Z,11.40
2018-08-03T05:45:50.606Z,10.30
2018-08-03T05:46:50.804Z,8.10
2018-08-03T05:47:50.770Z,10.50
2018-08-03T05:48:50.707Z,12.20
2018-08-03T05:49:50.676Z,11.90
2018-08-03T05:50:50.842Z,8.30
2018-08-03T05:51:50.708Z,9.30
2018-08-03T05:52:50.853Z,11.90
2018-08-03T05:53:50.756Z,9.00
2018-08-03T05:54:50.756Z,12.30
2018-08-03T05:55:50.786Z,11.40
2018-08-03T05:56:50.800Z,9.50
2018-08-03T05:57:50.843Z,13.30
2018-08-03T05:58:50.831Z,12.80
2018-08-03T05:59:50.848Z,12.60
2018-08-03T06:00:50.863Z,10.40
2018-08-03T06:01:50.877Z,9.60
2018-08-03T06:02:50.896Z,9.80
2018-08-03T06:03:50.924Z,9.90
2018-08-03T06:04:50.929Z,8.50
2018-08-03T06:05:50.945Z,9.70
2018-08-03T06:06:50.958Z,10.10
2018-08-03T06:07:51.002Z,9.90
2018-08-03T06:08:50.996Z,9.00
2018-08-03T06:09:51.024Z,11.70
2018-08-03T06:10:51.377Z,34.20
2018-08-03T06:11:51.046Z,16.50
2018-08-03T06:12:51.061Z,12.20
2018-08-03T06:13:51.079Z,13.20
2018-08-03T06:14:51.149Z,9.90
2018-08-03T06:15:51.170Z,12.10
2018-08-03T06:16:51.133Z,10.70
2018-08-03T06:17:51.167Z,12.30
2018-08-03T06:18:51.168Z,11.10
2018-08-03T06:19:51.179Z,10.70
2018-08-03T06:20:51.202Z,11.40
2018-08-03T06:21:51.226Z,10.10
2018-08-03T06:22:51.232Z,10.70
2018-08-03T06:23:51.249Z,12.80
2018-08-03T06:24:51.327Z,11.30
2018-08-03T06:25:51.321Z,9.90
2018-08-03T06:26:51.307Z,10.00
2018-08-03T06:27:51.360Z,12.30
2018-08-03T06:28:51.345Z,10.10
2018-08-03T06:29:51.352Z,11.90
2018-08-03T06:30:51.366Z,12.90
2018-08-03T06:31:51.384Z,10.10
2018-08-03T06:32:51.400Z,10.30
2018-08-03T06:33:51.486Z,11.50
2018-08-03T06:34:51.447Z,10.80
2018-08-03T06:35:51.559Z,10.80
2018-08-03T06:36:51.472Z,16.40
2018-08-03T06:37:51.661Z,10.90
2018-08-03T06:38:51.653Z,11.90
2018-08-03T06:39:51.536Z,10.90
2018-08-03T06:40:51.586Z,10.50
2018-08-03T06:41:51.564Z,12.20
2018-08-03T06:42:51.797Z,12.10
2018-08-03T06:43:51.663Z,10.20
2018-08-03T06:44:51.603Z,10.90
2018-08-03T06:45:51.715Z,11.90
2018-08-03T06:46:52.304Z,13.20
2018-08-03T06:47:51.718Z,10.50
2018-08-03T06:48:51.696Z,11.00
2018-08-03T06:49:51.790Z,10.50
2018-08-03T06:50:52.591Z,10.40
2018-08-03T06:51:51.916Z,11.40
2018-08-03T06:52:51.757Z,12.20
2018-08-03T06:53:53.323Z,10.80
2018-08-03T06:54:52.140Z,12.50
2018-08-03T06:55:52.068Z,10.60
2018-08-03T06:56:52.005Z,11.50
2018-08-03T06:58:51.871Z,11.70
2018-08-03T06:59:51.870Z,13.40
2018-08-03T07:00:51.932Z,11.10
2018-08-03T07:01:51.895Z,12.60
2018-08-03T07:02:51.966Z,11.40
2018-08-03T07:03:51.929Z,11.40
2018-08-03T07:04:51.966Z,12.10
2018-08-03T07:05:51.964Z,12.20
2018-08-03T07:06:52.000Z,14.00
2018-08-03T07:07:52.000Z,10.50
2018-08-03T07:08:52.020Z,12.00
2018-08-03T07:09:52.036Z,11.40
2018-08-03T07:10:52.051Z,13.20
2018-08-03T07:11:52.131Z,11.00
2018-08-03T07:12:52.088Z,10.50
2018-08-03T07:13:52.104Z,11.30
2018-08-03T07:14:52.174Z,14.80
2018-08-03T07:15:52.202Z,12.90
2018-08-03T07:16:52.216Z,11.80
2018-08-03T07:17:52.289Z,15.10
2018-08-03T07:18:52.192Z,13.90
2018-08-03T07:19:52.260Z,13.70
2018-08-03T07:20:52.234Z,12.70
2018-08-03T07:21:52.244Z,10.60
2018-08-03T07:22:52.976Z,10.50
2018-08-03T07:23:52.320Z,11.30
2018-08-03T07:24:52.381Z,10.80
2018-08-03T07:25:52.320Z,10.70
2018-08-03T07:26:52.334Z,11.30
2018-08-03T07:27:52.364Z,14.40
2018-08-03T07:28:52.379Z,16.30
2018-08-03T07:29:52.404Z,11.00
2018-08-03T07:30:52.462Z,9.30
2018-08-03T07:31:52.467Z,11.30
2018-08-03T07:32:52.443Z,11.30
2018-08-03T07:33:52.460Z,12.20
2018-08-03T07:34:52.475Z,12.10
2018-08-03T07:35:52.563Z,10.40
2018-08-03T07:36:52.527Z,14.50
2018-08-03T07:37:52.543Z,11.00
2018-08-03T07:38:52.546Z,12.20
2018-08-03T07:39:53.083Z,10.50
2018-08-03T07:40:52.792Z,14.70
2018-08-03T07:41:52.754Z,9.50
2018-08-03T07:42:52.647Z,10.10
2018-08-03T07:43:52.636Z,9.00
2018-08-03T07:44:52.858Z,10.40
2018-08-03T07:45:52.683Z,11.20
2018-08-03T07:46:52.701Z,9.40
2018-08-03T07:47:52.706Z,9.30
2018-08-03T07:48:52.798Z,10.00
2018-08-03T07:49:52.754Z,9.10
2018-08-03T07:50:52.762Z,9.70
2018-08-03T07:51:52.781Z,10.10
2018-08-03T07:52:52.808Z,11.20
2018-08-03T07:53:52.817Z,10.30
2018-08-03T07:54:52.835Z,8.40
2018-08-03T07:55:52.853Z,11.40
2018-08-03T07:56:52.871Z,12.10
2018-08-03T07:57:52.887Z,9.10
2018-08-03T07:58:53.108Z,9.90
2018-08-03T07:59:52.927Z,8.50
2018-08-03T08:00:52.990Z,11.10
2018-08-03T08:01:53.068Z,10.10
2018-08-03T08:02:53.009Z,9.60
2018-08-03T08:03:53.031Z,9.40
2018-08-03T08:04:53.013Z,10.70
2018-08-03T08:05:53.035Z,8.50
2018-08-03T08:06:53.051Z,12.00
2018-08-03T08:07:53.072Z,12.30
2018-08-03T08:08:53.371Z,10.10
2018-08-03T08:09:53.110Z,11.00
2018-08-03T08:10:53.133Z,9.20
2018-08-03T08:11:53.147Z,9.40
2018-08-03T08:12:53.159Z,9.60
2018-08-03T08:13:53.177Z,10.80
2018-08-03T08:14:53.248Z,8.60
2018-08-03T08:15:53.220Z,14.50
2018-08-03T08:16:53.266Z,9.40
2018-08-03T08:17:53.299Z,11.20
2018-08-03T08:18:53.274Z,11.50
2018-08-03T08:20:53.302Z,12.90
2018-08-03T08:21:53.323Z,10.20
2018-08-03T08:22:53.439Z,9.70
2018-08-03T08:23:53.430Z,9.10
2018-08-03T08:24:53.396Z,8.40
2018-08-03T08:25:53.436Z,10.30
2018-08-03T08:26:53.414Z,10.40
2018-08-03T08:27:53.552Z,13.10
2018-08-03T08:28:53.450Z,8.10
2018-08-03T08:29:53.548Z,8.40
2018-08-03T08:30:54.432Z,9.40
2018-08-03T08:31:53.560Z,7.90
2018-08-03T08:32:53.528Z,8.50
2018-08-03T08:33:53.566Z,8.10
2018-08-03T08:34:53.569Z,8.20
2018-08-03T08:35:53.918Z,9.00
2018-08-03T08:36:53.824Z,8.50
2018-08-03T08:37:53.834Z,7.60
2018-08-03T08:38:53.638Z,7.70
2018-08-03T08:39:54.444Z,11.10
2018-08-03T08:42:53.716Z,8.30
2018-08-03T08:44:53.748Z,8.10
2018-08-03T08:45:54.006Z,9.20
2018-08-03T08:46:53.792Z,8.20
2018-08-03T08:47:53.799Z,9.50
2018-08-03T08:48:53.837Z,9.30
2018-08-03T08:49:53.847Z,8.60
2018-08-03T08:50:53.858Z,8.60
2018-08-03T08:51:53.880Z,9.90
2018-08-03T08:52:53.893Z,7.20
2018-08-03T08:53:53.914Z,8.30
2018-08-03T08:54:54.008Z,7.50
2018-08-03T08:55:53.996Z,8.00
2018-08-03T08:56:53.978Z,9.30
2018-08-03T08:57:54.039Z,8.00
2018-08-03T08:58:54.086Z,7.50
2018-08-03T08:59:54.092Z,8.10
2018-08-03T09:00:54.122Z,9.10
2018-08-03T09:01:54.063Z,11.30
2018-08-03T09:02:54.158Z,9.40
2018-08-03T09:03:54.127Z,8.70
2018-08-03T09:04:54.184Z,9.70
2018-08-03T09:05:54.145Z,9.40
2018-08-03T09:06:55.016Z,7.40
2018-08-03T09:07:54.861Z,7.10
2018-08-03T09:08:54.721Z,7.40
2018-08-03T09:09:55.017Z,8.70
2018-08-03T09:10:54.232Z,10.10
2018-08-03T09:11:54.586Z,7.40
2018-08-03T09:12:54.278Z,7.60
2018-08-03T09:13:54.843Z,8.50
2018-08-03T09:14:54.357Z,7.50
2018-08-03T09:15:54.324Z,10.70
2018-08-03T09:16:54.347Z,8.30
2018-08-03T09:17:54.367Z,8.50
2018-08-03T09:18:54.402Z,7.70
2018-08-03T09:19:54.469Z,8.50
2018-08-03T09:20:54.434Z,8.00
2018-08-03T09:21:54.441Z,7.30
2018-08-03T09:24:54.811Z,7.40
2018-08-03T09:25:55.008Z,8.20
2018-08-03T09:26:54.646Z,7.60
2018-08-03T09:27:55.857Z,7.10
2018-08-03T09:28:54.735Z,6.80
2018-08-03T09:30:55.749Z,7.20
2018-08-03T09:31:54.633Z,7.90
2018-08-03T09:32:54.665Z,7.20
2018-08-03T09:33:54.673Z,7.90
2018-08-03T09:34:55.106Z,8.40
2018-08-03T09:35:54.713Z,10.30
2018-08-03T09:37:54.832Z,6.60
2018-08-03T09:38:54.772Z,7.50
2018-08-03T09:39:54.792Z,8.90
2018-08-03T09:40:54.818Z,7.20
2018-08-03T09:41:55.529Z,7.80
2018-08-03T09:42:54.932Z,7.90
2018-08-03T09:43:54.886Z,7.50
2018-08-03T09:44:54.992Z,6.70
2018-08-03T09:45:55.004Z,7.80
2018-08-03T09:46:54.921Z,6.80
2018-08-03T09:47:55.103Z,6.30
2018-08-03T09:48:54.961Z,6.60
2018-08-03T09:49:54.987Z,7.00
2018-08-03T09:50:55.021Z,5.70
2018-08-03T09:51:55.098Z,6.40
2018-08-03T09:52:55.037Z,5.20
2018-08-03T09:53:55.063Z,5.60
2018-08-03T09:54:55.079Z,7.40
2018-08-03T09:55:55.104Z,6.00
2018-08-03T09:56:55.120Z,7.60
2018-08-03T09:57:55.143Z,6.10
2018-08-03T09:58:55.167Z,6.00
2018-08-03T09:59:55.240Z,5.80
2018-08-03T10:00:55.197Z,6.90
2018-08-03T10:01:55.256Z,8.20
2018-08-03T10:02:55.249Z,6.60
2018-08-03T10:03:55.256Z,7.30
2018-08-03T10:04:55.279Z,9.00
2018-08-03T10:05:55.338Z,5.90
2018-08-03T10:06:55.346Z,6.20
2018-08-03T10:07:55.353Z,7.40
2018-08-03T10:08:55.410Z,7.90
2018-08-03T10:10:55.587Z,7.30
2018-08-03T10:11:55.452Z,7.50
2018-08-03T10:12:55.685Z,7.60
2018-08-03T10:13:55.784Z,5.80
2018-08-03T10:14:55.739Z,6.70
2018-08-03T10:15:55.499Z,5.60
2018-08-03T10:16:55.621Z,7.40
2018-08-03T10:17:55.661Z,6.70
2018-08-03T10:18:55.559Z,7.60
2018-08-03T10:19:55.580Z,6.50
2018-08-03T10:20:55.607Z,7.80
2018-08-03T10:21:55.628Z,7.00
2018-08-03T10:22:55.639Z,5.80
2018-08-03T10:23:55.651Z,6.10
2018-08-03T10:24:55.672Z,8.10
2018-08-03T10:25:55.693Z,8.00
2018-08-03T10:26:55.713Z,5.70
2018-08-03T10:27:55.740Z,6.20
2018-08-03T10:28:55.747Z,5.20
2018-08-03T10:29:55.773Z,6.20
2018-08-03T10:30:55.805Z,6.80
2018-08-03T10:31:55.820Z,7.10
2018-08-03T10:32:55.963Z,6.20
2018-08-03T10:33:55.852Z,7.30
2018-08-03T10:34:55.879Z,9.10
2018-08-03T10:35:55.890Z,6.60
2018-08-03T10:36:55.928Z,5.70
2018-08-03T10:37:55.928Z,5.80
2018-08-03T10:38:56.028Z,9.60
2018-08-03T10:39:55.977Z,8.10
2018-08-03T10:40:55.998Z,7.20
2018-08-03T10:41:56.010Z,5.60
2018-08-03T10:42:56.152Z,6.10
2018-08-03T10:43:56.163Z,6.10
2018-08-03T10:44:56.073Z,5.20
2018-08-03T10:45:56.276Z,6.50
2018-08-03T10:46:56.161Z,5.20
2018-08-03T10:47:56.132Z,6.20
2018-08-03T10:48:56.157Z,4.50
2018-08-03T10:49:56.175Z,7.30
2018-08-03T10:50:56.192Z,4.60
2018-08-03T10:51:56.213Z,7.20
2018-08-03T10:52:56.234Z,6.40
2018-08-03T10:53:56.254Z,6.60
2018-08-03T10:54:56.274Z,4.60
2018-08-03T10:55:56.301Z,8.30
2018-08-03T10:56:56.333Z,4.30
2018-08-03T10:57:56.334Z,7.90
2018-08-03T10:58:56.360Z,5.70
2018-08-03T10:59:56.378Z,6.50
2018-08-03T11:00:56.398Z,6.70
2018-08-03T11:01:56.417Z,6.00
2018-08-03T11:02:56.446Z,4.00
2018-08-03T11:03:56.467Z,7.40
2018-08-03T11:04:56.493Z,6.50
2018-08-03T11:05:56.511Z,4.70
2018-08-03T11:06:56.519Z,4.80
2018-08-03T11:07:56.541Z,6.20
2018-08-03T11:08:56.567Z,5.10
2018-08-03T11:09:56.601Z,6.70
2018-08-03T11:10:57.149Z,4.60
2018-08-03T11:11:56.625Z,6.10
2018-08-03T11:12:57.251Z,5.00
2018-08-03T11:13:56.816Z,5.50
2018-08-03T11:14:56.727Z,8.00
2018-08-03T11:15:56.707Z,5.60
2018-08-03T11:16:56.730Z,6.50
2018-08-03T11:17:56.956Z,6.90
2018-08-03T11:18:56.855Z,4.80
2018-08-03T11:19:56.793Z,7.90
2018-08-03T11:20:56.953Z,4.90
2018-08-03T11:21:56.900Z,5.70
2018-08-03T11:22:56.924Z,6.70
2018-08-03T11:23:57.588Z,7.40
2018-08-03T11:24:56.897Z,7.70
2018-08-03T11:25:56.953Z,4.80
2018-08-03T11:26:56.960Z,4.70
2018-08-03T11:27:56.978Z,6.00
2018-08-03T11:28:56.988Z,6.40
2018-08-03T11:29:56.999Z,5.20
2018-08-03T11:30:57.018Z,8.40
2018-08-03T11:31:57.046Z,7.00
2018-08-03T11:32:57.068Z,9.10
2018-08-03T11:33:57.087Z,7.50
2018-08-03T11:34:57.130Z,6.60
2018-08-03T11:35:57.122Z,7.00
2018-08-03T11:36:57.148Z,6.50
2018-08-03T11:37:57.222Z,5.40
2018-08-03T11:38:57.194Z,6.50
2018-08-03T11:39:57.212Z,5.20
2018-08-03T11:40:57.286Z,6.90
2018-08-03T11:41:57.254Z,7.10
2018-08-03T11:42:57.272Z,6.20
2018-08-03T11:43:57.294Z,4.40
2018-08-03T11:44:57.313Z,6.90
2018-08-03T11:45:57.399Z,4.30
2018-08-03T11:46:57.371Z,6.10
2018-08-03T11:47:57.383Z,4.80
2018-08-03T11:48:57.408Z,7.60
2018-08-03T11:49:57.425Z,5.30
2018-08-03T11:50:57.436Z,5.80
2018-08-03T11:51:57.500Z,8.00
2018-08-03T11:52:57.482Z,5.80
2018-08-03T11:53:57.730Z,5.80
2018-08-03T11:54:57.727Z,4.90
2018-08-03T11:55:58.125Z,6.40
2018-08-03T11:56:57.689Z,5.90
2018-08-03T11:57:57.590Z,5.20
2018-08-03T11:58:57.610Z,6.10
2018-08-03T12:00:57.714Z,5.50
2018-08-03T12:01:57.685Z,4.80
2018-08-03T12:02:57.803Z,5.00
2018-08-03T12:03:57.718Z,5.70
2018-08-03T12:04:57.748Z,5.50
2018-08-03T12:05:57.762Z,6.00
2018-08-03T12:06:57.782Z,5.40
2018-08-03T12:07:57.805Z,4.40
2018-08-03T12:08:57.836Z,5.90
2018-08-03T12:09:57.847Z,4.90
2018-08-03T12:10:57.896Z,4.90
2018-08-03T12:11:57.901Z,6.90
2018-08-03T12:12:57.914Z,5.10
2018-08-03T12:13:58.138Z,5.40
2018-08-03T12:14:57.962Z,6.20
2018-08-03T12:15:57.977Z,9.20
2018-08-03T12:16:58.003Z,7.50
2018-08-03T12:17:58.154Z,5.60
2018-08-03T12:18:58.045Z,4.60
2018-08-03T12:19:58.070Z,6.70
2018-08-03T12:20:58.088Z,5.00
2018-08-03T12:21:58.121Z,4.50
2018-08-03T12:23:58.239Z,5.90
2018-08-03T12:24:58.289Z,4.90
2018-08-03T12:26:58.299Z,6.40
2018-08-03T12:27:58.824Z,5.20
2018-08-03T12:28:58.935Z,4.80
2018-08-03T12:29:58.406Z,6.30
2018-08-03T12:30:58.345Z,4.60
2018-08-03T12:31:58.351Z,7.80
2018-08-03T12:32:58.378Z,5.90
2018-08-03T12:33:58.375Z,6.20
2018-08-03T12:34:58.399Z,4.80
2018-08-03T12:36:58.479Z,6.70
2018-08-03T12:37:58.462Z,5.40
2018-08-03T12:38:58.478Z,5.70
2018-08-03T12:39:58.502Z,7.00
2018-08-03T12:40:58.533Z,6.60
2018-08-03T12:41:58.552Z,6.40
2018-08-03T12:42:58.564Z,5.00
2018-08-03T12:43:58.585Z,5.40
2018-08-03T12:44:58.612Z,4.60
2018-08-03T12:45:58.648Z,7.20
2018-08-03T12:46:58.662Z,7.20
2018-08-03T12:47:58.688Z,7.20
2018-08-03T12:48:58.696Z,4.60
2018-08-03T12:49:58.719Z,6.70
2018-08-03T12:50:58.741Z,4.90
2018-08-03T12:51:58.765Z,5.90
2018-08-03T12:52:58.792Z,5.30
2018-08-03T12:53:58.809Z,5.20
2018-08-03T12:54:58.840Z,6.10
2018-08-03T12:55:58.913Z,4.90
2018-08-03T12:56:58.884Z,4.50
2018-08-03T12:57:59.358Z,6.50
2018-08-03T12:58:59.057Z,5.80
2018-08-03T12:59:59.053Z,5.30
2018-08-03T13:00:59.149Z,5.00
2018-08-03T13:01:58.988Z,5.40
2018-08-03T13:02:59.168Z,4.70
2018-08-03T13:03:59.052Z,6.40
2018-08-03T13:05:59.082Z,5.30
2018-08-03T13:06:59.105Z,6.60
2018-08-03T13:07:59.277Z,9.10
2018-08-03T13:08:59.158Z,5.10
2018-08-03T13:09:59.188Z,6.00
2018-08-03T13:10:59.207Z,10.00
2018-08-03T13:11:59.229Z,5.60
2018-08-03T13:12:59.255Z,5.80
2018-08-03T13:13:59.276Z,5.00
2018-08-03T13:14:59.336Z,8.10
2018-08-03T13:15:59.324Z,5.20
2018-08-03T13:16:59.356Z,5.30
2018-08-03T13:17:59.382Z,5.60
2018-08-03T13:18:59.406Z,6.00
2018-08-03T13:19:59.431Z,6.30
2018-08-03T13:20:59.456Z,6.10
2018-08-03T13:21:59.488Z,7.20
2018-08-03T13:22:59.508Z,5.30
2018-08-03T13:23:59.534Z,5.70
2018-08-03T13:24:59.563Z,5.60
2018-08-03T13:26:00.690Z,7.80
2018-08-03T13:26:59.633Z,6.00
2018-08-03T13:27:59.646Z,6.40
2018-08-03T13:28:59.670Z,6.40
2018-08-03T13:29:59.700Z,6.60
2018-08-03T13:30:59.763Z,6.50
2018-08-03T13:31:59.753Z,6.60
2018-08-03T13:32:59.785Z,6.80
2018-08-03T13:33:59.817Z,6.30
2018-08-03T13:34:59.842Z,6.30
2018-08-03T13:35:59.880Z,7.10
2018-08-03T13:36:59.896Z,7.00
2018-08-03T13:37:59.925Z,7.30
2018-08-03T13:39:00.032Z,7.70
2018-08-03T13:40:00.001Z,6.50
2018-08-03T13:41:00.033Z,5.70
2018-08-03T13:42:00.064Z,5.70
2018-08-03T13:43:00.068Z,5.40
2018-08-03T13:44:00.094Z,5.00
2018-08-03T13:45:00.124Z,6.10
2018-08-03T13:46:00.148Z,4.80
2018-08-03T13:47:00.174Z,4.80